createdAt,value
2019-01-14T00:02:03.023Z,99713.16
2019-01-14T00:04:33.236Z,99730.14
2019-01-14T00:07:03.486Z,99744.97
2019-01-14T00:09:33.795Z,99746.08
2019-01-14T00:12:04.592Z,99756.41
2019-01-14T00:14:34.872Z,99759.67
2019-01-14T00:17:05.130Z,99759.11
2019-01-14T00:19:35.713Z,99761.12
2019-01-14T00:22:07.590Z,99773.27
2019-01-14T00:24:38.130Z,99777.55
2019-01-14T00:27:08.390Z,99794.45
2019-01-14T00:29:38.675Z,99801.17
2019-01-14T00:32:08.956Z,99804.92
2019-01-14T00:34:39.349Z,99815.86
2019-01-14T00:37:09.599Z,99821.50
2019-01-14T00:39:39.856Z,99828.72
2019-01-14T00:42:10.572Z,99836.58
2019-01-14T00:44:40.827Z,99843.28
2019-01-14T00:47:11.106Z,99847.78
2019-01-14T00:49:41.415Z,99850.52
2019-01-14T00:52:11.739Z,99866.20
2019-01-14T00:54:41.983Z,99858.97
2019-01-14T00:57:12.576Z,99848.97
2019-01-14T00:59:42.841Z,99885.16
2019-01-14T01:02:14.240Z,99896.02
2019-01-14T01:04:44.567Z,99906.85
2019-01-14T01:07:14.830Z,99912.07
2019-01-14T01:09:45.060Z,99922.91
2019-01-14T01:12:15.524Z,99930.76
2019-01-14T01:14:45.849Z,99946.70
2019-01-14T01:17:16.097Z,99944.78
2019-01-14T01:19:46.397Z,99957.36
2019-01-14T01:22:16.638Z,99962.58
2019-01-14T01:24:47.160Z,99971.35
2019-01-14T01:27:17.550Z,99971.39
2019-01-14T01:29:47.758Z,99962.48
2019-01-14T01:32:18.065Z,99974.95
2019-01-14T01:34:48.272Z,99977.18
2019-01-14T01:37:18.593Z,99984.33
2019-01-14T01:39:48.835Z,99994.88
2019-01-14T01:42:19.108Z,99997.16
2019-01-14T01:44:49.353Z,100006.86
2019-01-14T01:47:19.866Z,100012.02
2019-01-14T01:49:50.575Z,100002.48
2019-01-14T01:52:21.188Z,100017.53
2019-01-14T01:54:51.712Z,100001.49
2019-01-14T01:57:21.991Z,100012.17
2019-01-14T01:59:52.383Z,100019.62
2019-01-14T02:02:22.956Z,100022.20
2019-01-14T02:04:53.187Z,100024.30
2019-01-14T02:07:24.007Z,100013.12
2019-01-14T02:09:54.297Z,100038.34
2019-01-14T02:12:24.611Z,100042.88
2019-01-14T02:14:55.119Z,100046.91
2019-01-14T02:17:25.428Z,100050.42
2019-01-14T02:19:55.704Z,100043.31
2019-01-14T02:22:25.978Z,100056.43
2019-01-14T02:24:56.195Z,100047.57
2019-01-14T02:27:26.492Z,100051.74
2019-01-14T02:29:56.816Z,100044.81
2019-01-14T02:32:27.287Z,100050.28
2019-01-14T02:34:57.537Z,100058.24
2019-01-14T02:37:27.798Z,100075.52
2019-01-14T02:39:58.151Z,100080.33
2019-01-14T02:42:28.433Z,100074.03
2019-01-14T02:44:58.673Z,100080.03
2019-01-14T02:47:29.004Z,100074.58
2019-01-14T02:49:59.580Z,100075.87
2019-01-14T02:52:29.868Z,100086.95
2019-01-14T02:55:00.451Z,100086.95
2019-01-14T02:57:30.983Z,100089.08
2019-01-14T03:00:01.220Z,100086.33
2019-01-14T03:02:31.570Z,100090.56
2019-01-14T03:05:02.091Z,100084.74
2019-01-14T03:07:32.366Z,100089.11
2019-01-14T03:10:03.271Z,100088.62
2019-01-14T03:12:33.527Z,100099.28
2019-01-14T03:15:03.834Z,100095.42
2019-01-14T03:17:34.605Z,100096.38
2019-01-14T03:20:06.994Z,100113.50
2019-01-14T03:22:37.521Z,100114.94
2019-01-14T03:25:09.204Z,100112.05
2019-01-14T03:27:39.725Z,100107.05
2019-01-14T03:30:13.493Z,100114.27
2019-01-14T03:32:44.084Z,100114.59
2019-01-14T03:35:14.395Z,100117.83
2019-01-14T03:37:45.452Z,100155.48
2019-01-14T03:40:19.920Z,100173.97
2019-01-14T03:42:50.188Z,100204.20
2019-01-14T03:45:20.643Z,100192.58
2019-01-14T03:47:51.403Z,100205.69
2019-01-14T03:50:23.700Z,100195.38
2019-01-14T03:52:53.973Z,100208.14
2019-01-14T03:55:24.491Z,100206.51
2019-01-14T03:57:55.420Z,100209.73
2019-01-14T04:00:26.007Z,100206.19
2019-01-14T04:02:56.351Z,100201.03
2019-01-14T04:05:26.627Z,100205.69
2019-01-14T04:07:56.892Z,100225.08
2019-01-14T04:10:27.190Z,100228.95
2019-01-14T04:12:57.736Z,100228.13
2019-01-14T04:15:28.029Z,100242.19
2019-01-14T04:17:58.764Z,100236.85
2019-01-14T04:20:29.039Z,100246.05
2019-01-14T04:23:01.201Z,100251.69
2019-01-14T04:25:31.371Z,100248.48
2019-01-14T04:28:01.883Z,100240.41
2019-01-14T04:30:32.252Z,100241.38
2019-01-14T04:33:02.517Z,100242.66
2019-01-14T04:35:32.724Z,100248.14
2019-01-14T04:38:03.012Z,100250.25
2019-01-14T04:40:33.668Z,100252.33
2019-01-14T04:43:03.944Z,100260.25
2019-01-14T04:45:34.241Z,100269.59
2019-01-14T04:48:04.573Z,100283.97
2019-01-14T04:50:34.819Z,100296.66
2019-01-14T04:53:05.251Z,100293.71
2019-01-14T04:55:35.571Z,100290.70
2019-01-14T04:58:05.952Z,100285.22
2019-01-14T05:00:36.168Z,100284.70
2019-01-14T05:03:07.002Z,100286.98
2019-01-14T05:05:37.258Z,100284.09
2019-01-14T05:08:07.509Z,100282.48
2019-01-14T05:10:37.821Z,100282.97
2019-01-14T05:13:08.121Z,100284.11
2019-01-14T05:15:38.412Z,100296.20
2019-01-14T05:18:08.731Z,100289.95
2019-01-14T05:20:39.070Z,100290.61
2019-01-14T05:23:09.385Z,100304.66
2019-01-14T05:25:39.628Z,100302.40
2019-01-14T05:28:10.155Z,100298.83
2019-01-14T05:30:40.721Z,100306.70
2019-01-14T05:33:11.053Z,100309.13
2019-01-14T05:35:41.350Z,100317.72
2019-01-14T05:38:11.587Z,100317.70
2019-01-14T05:40:41.929Z,100320.96
2019-01-14T05:43:12.271Z,100328.21
2019-01-14T05:45:42.507Z,100320.83
2019-01-14T05:48:12.911Z,100316.80
2019-01-14T05:50:43.212Z,100317.31
2019-01-14T05:53:13.398Z,100317.60
2019-01-14T05:55:43.677Z,100315.21
2019-01-14T05:58:14.308Z,100321.33
2019-01-14T06:00:47.507Z,100321.98
2019-01-14T06:03:17.970Z,100329.41
2019-01-14T06:05:48.490Z,100334.59
2019-01-14T06:08:20.369Z,100347.66
2019-01-14T06:10:51.053Z,100345.36
2019-01-14T06:13:21.365Z,100347.78
2019-01-14T06:15:51.614Z,100358.27
2019-01-14T06:18:21.903Z,100365.37
2019-01-14T06:20:52.210Z,100363.56
2019-01-14T06:23:22.456Z,100375.97
2019-01-14T06:25:52.837Z,100383.39
2019-01-14T06:28:23.192Z,100374.34
2019-01-14T06:30:53.454Z,100378.52
2019-01-14T06:33:24.205Z,100387.06
2019-01-14T06:35:55.327Z,100388.87
2019-01-14T06:38:25.600Z,100383.41
2019-01-14T06:40:55.905Z,100401.45
2019-01-14T06:43:26.128Z,100400.67
2019-01-14T06:45:56.514Z,100407.80
2019-01-14T06:48:26.992Z,100414.24
2019-01-14T06:50:57.226Z,100417.12
2019-01-14T06:53:27.561Z,100421.75
2019-01-14T06:55:57.938Z,100429.00
2019-01-14T06:58:28.197Z,100439.32
2019-01-14T07:00:58.549Z,100439.95
2019-01-14T07:03:28.935Z,100447.99
2019-01-14T07:05:59.224Z,100462.19
2019-01-14T07:08:29.492Z,100451.24
2019-01-14T07:11:00.008Z,100453.95
2019-01-14T07:13:30.269Z,100450.41
2019-01-14T07:16:00.574Z,100458.40
2019-01-14T07:18:31.281Z,100465.83
2019-01-14T07:21:01.818Z,100468.53
2019-01-14T07:23:32.066Z,100477.55
2019-01-14T07:26:04.175Z,100479.92
2019-01-14T07:28:34.446Z,100490.12
2019-01-14T07:31:05.110Z,100498.91
2019-01-14T07:33:35.405Z,100494.07
2019-01-14T07:36:05.802Z,100486.20
2019-01-14T07:38:36.333Z,100488.58
2019-01-14T07:41:06.790Z,100496.48
2019-01-14T07:43:37.040Z,100491.50
2019-01-14T07:46:07.478Z,100498.59
2019-01-14T07:48:38.355Z,100501.22
2019-01-14T07:51:08.605Z,100502.68
2019-01-14T07:53:38.897Z,100516.43
2019-01-14T07:56:09.772Z,100511.09
2019-01-14T07:58:40.342Z,100522.89
2019-01-14T08:01:10.628Z,100530.31
2019-01-14T08:03:40.988Z,100535.11
2019-01-14T08:06:11.312Z,100536.84
2019-01-14T08:08:41.610Z,100528.98
2019-01-14T08:11:11.892Z,100542.91
2019-01-14T08:13:42.168Z,100546.91
2019-01-14T08:16:12.406Z,100555.66
2019-01-14T08:18:42.983Z,100555.70
2019-01-14T08:21:13.237Z,100555.06
2019-01-14T08:23:43.805Z,100561.40
2019-01-14T08:26:14.058Z,100566.55
2019-01-14T08:28:44.358Z,100561.76
2019-01-14T08:31:14.582Z,100583.85
2019-01-14T08:33:45.152Z,100599.14
2019-01-14T08:36:15.411Z,100604.92
2019-01-14T08:38:45.658Z,100607.08
2019-01-14T08:41:16.630Z,100606.30
2019-01-14T08:43:47.621Z,100608.80
2019-01-14T08:46:18.471Z,100600.59
2019-01-14T08:48:48.980Z,100604.97
2019-01-14T08:51:19.356Z,100593.88
2019-01-14T08:53:50.252Z,100598.59
2019-01-14T08:56:20.559Z,100592.31
2019-01-14T08:58:50.851Z,100592.80
2019-01-14T09:01:21.190Z,100585.63
2019-01-14T09:03:51.674Z,100584.14
2019-01-14T09:06:22.802Z,100592.57
2019-01-14T09:08:53.371Z,100592.15
2019-01-14T09:11:23.633Z,100585.08
2019-01-14T09:13:54.026Z,100593.67
2019-01-14T09:16:24.299Z,100584.34
2019-01-14T09:18:54.568Z,100589.84
2019-01-14T09:21:24.950Z,100604.39
2019-01-14T09:23:55.234Z,100612.89
2019-01-14T09:26:25.501Z,100635.88
2019-01-14T09:28:55.788Z,100645.22
2019-01-14T09:31:26.154Z,100626.30
2019-01-14T09:33:57.005Z,100631.75
2019-01-14T09:36:27.355Z,100633.41
2019-01-14T09:38:57.647Z,100632.05
2019-01-14T09:41:27.905Z,100625.30
2019-01-14T09:43:58.119Z,100617.95
2019-01-14T09:46:28.883Z,100619.30
2019-01-14T09:48:59.177Z,100622.42
2019-01-14T09:51:29.543Z,100615.56
2019-01-14T09:53:59.842Z,100622.08
2019-01-14T09:56:30.053Z,100609.56
2019-01-14T09:59:00.767Z,100616.73
2019-01-14T10:01:31.033Z,100616.78
2019-01-14T10:04:01.345Z,100615.86
2019-01-14T10:06:31.665Z,100615.81
2019-01-14T10:09:01.990Z,100600.93
2019-01-14T10:11:32.225Z,100600.80
2019-01-14T10:14:02.747Z,100594.88
2019-01-14T10:16:33.047Z,100600.30
2019-01-14T10:19:04.989Z,100616.14
2019-01-14T10:21:35.534Z,100638.85
2019-01-14T10:24:06.002Z,100638.22
2019-01-14T10:26:36.695Z,100644.13
2019-01-14T10:29:07.098Z,100671.19
2019-01-14T10:31:37.517Z,100653.79
2019-01-14T10:34:07.807Z,100666.33
2019-01-14T10:36:38.114Z,100643.19
2019-01-14T10:39:09.428Z,100659.12
2019-01-14T10:41:39.723Z,100666.75
2019-01-14T10:44:10.105Z,100675.92
2019-01-14T10:46:40.879Z,100674.48
2019-01-14T10:49:11.602Z,100690.32
2019-01-14T10:51:41.961Z,100683.63
2019-01-14T10:54:12.165Z,100679.43
2019-01-14T10:56:44.039Z,100671.20
2019-01-14T10:59:14.590Z,100680.14
2019-01-14T11:01:44.891Z,100690.18
2019-01-14T11:04:15.252Z,100688.98
2019-01-14T11:06:45.485Z,100682.23
2019-01-14T11:09:15.775Z,100682.91
2019-01-14T11:11:46.039Z,100684.57
2019-01-14T11:14:16.276Z,100697.13
2019-01-14T11:16:46.869Z,100697.47
2019-01-14T11:19:17.141Z,100709.73
2019-01-14T11:21:47.404Z,100725.66
2019-01-14T11:24:17.758Z,100732.72
2019-01-14T11:26:48.072Z,100734.56
2019-01-14T11:29:18.333Z,100731.97
2019-01-14T11:31:48.714Z,100732.82
2019-01-14T11:34:19.068Z,100730.45
2019-01-14T11:36:49.341Z,100732.65
2019-01-14T11:39:22.094Z,100740.77
2019-01-14T11:41:53.118Z,100739.17
2019-01-14T11:44:23.469Z,100754.06
2019-01-14T11:46:54.001Z,100752.72
2019-01-14T11:49:24.265Z,100758.62
2019-01-14T11:51:54.853Z,100765.42
2019-01-14T11:54:26.136Z,100770.73
2019-01-14T11:56:56.376Z,100768.80
2019-01-14T11:59:26.706Z,100784.12
2019-01-14T12:01:57.069Z,100787.91
2019-01-14T12:04:27.323Z,100790.41
2019-01-14T12:06:57.675Z,100800.77
2019-01-14T12:09:28.046Z,100811.08
2019-01-14T12:11:58.407Z,100809.88
2019-01-14T12:14:28.662Z,100806.48
2019-01-14T12:16:59.018Z,100802.34
2019-01-14T12:19:29.323Z,100809.75
2019-01-14T12:21:59.632Z,100816.63
2019-01-14T12:24:29.998Z,100824.96
2019-01-14T12:27:01.488Z,100830.98
2019-01-14T12:29:31.820Z,100833.97
2019-01-14T12:32:02.117Z,100841.77
2019-01-14T12:34:32.427Z,100838.69
2019-01-14T12:37:02.719Z,100836.70
2019-01-14T12:39:33.017Z,100843.23
2019-01-14T12:42:03.354Z,100850.59
2019-01-14T12:44:33.668Z,100849.36
2019-01-14T12:47:04.088Z,100845.61
2019-01-14T12:49:34.727Z,100850.95
2019-01-14T12:52:05.049Z,100854.41
2019-01-14T12:54:35.752Z,100851.91
2019-01-14T12:57:06.075Z,100853.03
2019-01-14T12:59:36.296Z,100870.10
2019-01-14T13:02:06.804Z,100847.59
2019-01-14T13:04:37.077Z,100856.00
2019-01-14T13:07:07.639Z,100860.70
2019-01-14T13:09:38.596Z,100859.45
2019-01-14T13:12:09.203Z,100862.94
2019-01-14T13:14:39.498Z,100860.30
2019-01-14T13:17:13.107Z,100871.03
2019-01-14T13:19:43.372Z,100870.64
2019-01-14T13:22:14.128Z,100869.78
2019-01-14T13:24:44.752Z,100878.93
2019-01-14T13:27:15.737Z,100880.30
2019-01-14T13:29:46.118Z,100880.91
2019-01-14T13:32:16.687Z,100876.50
2019-01-14T13:34:47.453Z,100883.44
2019-01-14T13:37:18.175Z,100887.16
2019-01-14T13:39:52.520Z,100887.78
2019-01-14T13:42:20.443Z,100889.11
2019-01-14T13:44:50.801Z,100896.97
2019-01-14T13:47:21.202Z,100897.94
2019-01-14T13:49:51.464Z,100895.84
2019-01-14T13:52:23.497Z,100896.33
2019-01-14T13:54:53.907Z,100900.84
2019-01-14T13:57:24.150Z,100897.11
2019-01-14T13:59:54.398Z,100901.44
2019-01-14T14:02:24.615Z,100903.38
2019-01-14T14:04:54.860Z,100913.86
2019-01-14T14:07:28.013Z,100907.30
2019-01-14T14:09:58.526Z,100909.53
2019-01-14T14:12:28.865Z,100909.23
2019-01-14T14:14:59.245Z,100904.02
2019-01-14T14:17:29.445Z,100920.95
2019-01-14T14:20:00.029Z,100928.95
2019-01-14T14:22:30.550Z,100931.69
2019-01-14T14:25:00.843Z,100940.83
2019-01-14T14:27:31.154Z,100941.74
2019-01-14T14:30:01.747Z,100950.00
2019-01-14T14:32:32.104Z,100947.55
2019-01-14T14:35:02.419Z,100953.48
2019-01-14T14:37:32.785Z,100960.39
2019-01-14T14:40:03.060Z,100958.57
2019-01-14T14:42:33.307Z,100972.92
2019-01-14T14:45:03.906Z,100963.86
2019-01-14T14:47:34.236Z,100971.55
2019-01-14T14:50:05.643Z,100978.51
2019-01-14T14:52:35.984Z,100990.69
2019-01-14T14:55:07.173Z,100985.33
2019-01-14T14:57:39.208Z,100982.84
2019-01-14T15:00:14.354Z,100993.30
2019-01-14T15:02:44.672Z,100998.77
2019-01-14T15:05:15.516Z,101001.02
2019-01-14T15:07:45.827Z,101010.80
2019-01-14T15:10:18.538Z,101019.45
2019-01-14T15:12:49.407Z,101013.95
2019-01-14T15:15:21.810Z,101016.64
2019-01-14T15:17:52.376Z,101022.28
2019-01-14T15:20:24.575Z,101029.14
2019-01-14T15:22:55.405Z,101026.02
2019-01-14T15:25:25.699Z,101034.69
2019-01-14T15:27:56.011Z,101034.98
2019-01-14T15:30:31.386Z,101033.15
2019-01-14T15:33:01.678Z,101043.32
2019-01-14T15:35:32.008Z,101033.35
2019-01-14T15:38:02.660Z,101041.09
2019-01-14T15:40:32.999Z,101031.09
2019-01-14T15:43:03.928Z,101041.41
2019-01-14T15:45:34.225Z,101047.51
2019-01-14T15:48:04.540Z,101057.61
2019-01-14T15:50:34.905Z,101061.58
2019-01-14T15:53:05.225Z,101055.55
2019-01-14T15:55:36.425Z,101062.16
2019-01-14T15:58:06.857Z,101078.13
2019-01-14T16:00:37.181Z,101082.84
2019-01-14T16:03:07.506Z,101084.28
2019-01-14T16:05:37.824Z,101082.58
2019-01-14T16:08:08.076Z,101089.18
2019-01-14T16:10:38.390Z,101081.89
2019-01-14T16:13:08.748Z,101087.57
2019-01-14T16:15:39.033Z,101084.99
2019-01-14T16:18:09.314Z,101088.12
2019-01-14T16:20:39.676Z,101093.05
2019-01-14T16:23:09.987Z,101104.40
2019-01-14T16:25:40.597Z,101099.59
2019-01-14T16:28:10.930Z,101104.63
2019-01-14T16:30:41.249Z,101107.87
2019-01-14T16:33:11.551Z,101103.33
2019-01-14T16:35:41.891Z,101109.00
2019-01-14T16:38:12.203Z,101103.23
2019-01-14T16:40:42.511Z,101111.00
2019-01-14T16:43:12.942Z,101107.08
2019-01-14T16:45:43.220Z,101106.84
2019-01-14T16:48:13.519Z,101111.94
2019-01-14T16:50:45.013Z,101116.88
2019-01-14T16:53:15.196Z,101115.75
2019-01-14T16:55:47.720Z,101123.42
2019-01-14T16:58:18.104Z,101126.93
2019-01-14T17:00:48.493Z,101131.45
2019-01-14T17:03:18.761Z,101138.13
2019-01-14T17:05:49.388Z,101143.92
2019-01-14T17:08:19.712Z,101148.47
2019-01-14T17:10:50.065Z,101149.92
2019-01-14T17:13:20.371Z,101154.30
2019-01-14T17:15:50.685Z,101140.57
2019-01-14T17:18:20.976Z,101150.56
2019-01-14T17:20:51.354Z,101143.41
2019-01-14T17:23:21.606Z,101148.56
2019-01-14T17:25:51.951Z,101158.42
2019-01-14T17:28:22.350Z,101160.04
2019-01-14T17:30:52.668Z,101163.73
2019-01-14T17:33:22.942Z,101167.86
2019-01-14T17:35:53.319Z,101175.56
2019-01-14T17:40:49.416Z,101170.24
2019-01-14T17:41:40.520Z,101173.04
2019-01-14T17:44:10.802Z,101182.19
2019-01-14T17:46:41.116Z,101183.35
2019-01-14T17:49:11.585Z,101192.06
2019-01-14T17:51:42.467Z,101191.08
2019-01-14T17:54:12.791Z,101195.75
2019-01-14T17:56:43.103Z,101202.41
2019-01-14T17:59:13.446Z,101203.31
2019-01-14T18:01:43.700Z,101211.66
2019-01-14T18:04:14.046Z,101215.98
2019-01-14T18:06:44.577Z,101219.56
2019-01-14T18:09:14.847Z,101225.14
2019-01-14T18:11:45.258Z,101226.86
2019-01-14T18:14:15.505Z,101224.16
2019-01-14T18:16:45.835Z,101224.06
2019-01-14T18:19:17.297Z,101227.82
2019-01-14T18:21:47.520Z,101233.02
2019-01-14T18:24:17.795Z,101233.58
2019-01-14T18:26:48.647Z,101228.69
2019-01-14T18:29:18.923Z,101233.23
2019-01-14T18:31:49.629Z,101230.04
2019-01-14T18:34:19.958Z,101226.87
2019-01-14T18:36:50.239Z,101224.39
2019-01-14T18:39:20.476Z,101236.91
2019-01-14T18:41:51.072Z,101240.09
2019-01-14T18:44:21.327Z,101234.52
2019-01-14T18:46:51.598Z,101236.49
2019-01-14T18:49:21.957Z,101242.04
2019-01-14T18:51:52.546Z,101248.11
2019-01-14T18:54:22.921Z,101254.56
2019-01-14T18:56:53.313Z,101255.02
2019-01-14T18:59:23.660Z,101258.88
2019-01-14T19:01:54.146Z,101262.70
2019-01-14T19:04:24.437Z,101270.59
2019-01-14T19:06:54.758Z,101262.23
2019-01-14T19:09:25.623Z,101260.69
2019-01-14T19:11:56.170Z,101261.25
2019-01-14T19:14:31.816Z,101265.55
2019-01-14T19:17:07.833Z,101258.88
2019-01-14T19:19:40.914Z,101256.05
2019-01-14T19:22:15.833Z,101254.83
2019-01-14T19:24:46.547Z,101260.56
2019-01-14T19:27:18.724Z,101259.18
2019-01-14T19:29:49.044Z,101254.86
2019-01-14T19:32:19.407Z,101262.47
2019-01-14T19:34:49.775Z,101257.26
2019-01-14T19:37:20.057Z,101256.52
2019-01-14T19:39:50.615Z,101268.68
2019-01-14T19:42:20.910Z,101272.09
2019-01-14T19:44:51.223Z,101275.57
2019-01-14T19:47:21.582Z,101278.41
2019-01-14T19:49:51.938Z,101273.73
2019-01-14T19:52:22.236Z,101284.67
2019-01-14T19:54:52.604Z,101293.29
2019-01-14T19:57:23.288Z,101289.61
2019-01-14T19:59:53.669Z,101296.23
2019-01-14T20:02:24.215Z,101302.41
2019-01-14T20:04:54.498Z,101305.08
2019-01-14T20:07:24.879Z,101305.16
2019-01-14T20:09:55.409Z,101307.38
2019-01-14T20:12:26.399Z,101307.98
2019-01-14T20:15:02.471Z,101305.44
2019-01-14T20:17:32.916Z,101307.99
2019-01-14T20:20:03.251Z,101304.38
2019-01-14T20:22:33.597Z,101305.70
2019-01-14T20:25:03.935Z,101309.84
2019-01-14T20:27:34.201Z,101307.64
2019-01-14T20:30:05.838Z,101306.97
2019-01-14T20:32:36.139Z,101304.74
2019-01-14T20:35:06.595Z,101305.03
2019-01-14T20:37:36.983Z,101315.13
2019-01-14T20:40:07.947Z,101318.75
2019-01-14T20:42:38.223Z,101320.81
2019-01-14T20:45:09.275Z,101319.59
2019-01-14T20:47:39.577Z,101322.42
2019-01-14T20:50:12.283Z,101329.11
2019-01-14T20:52:42.670Z,101325.75
2019-01-14T20:55:13.675Z,101329.63
2019-01-14T20:57:43.966Z,101326.33
2019-01-14T21:00:24.177Z,101326.23
2019-01-14T21:02:54.680Z,101323.53
2019-01-14T21:05:26.069Z,101323.53
2019-01-14T21:07:56.602Z,101323.49
2019-01-14T21:10:26.999Z,101331.98
2019-01-14T21:12:57.317Z,101327.30
2019-01-14T21:15:27.744Z,101330.08
2019-01-14T21:17:58.328Z,101335.82
2019-01-14T21:20:28.617Z,101345.22
2019-01-14T21:22:58.958Z,101347.90
2019-01-14T21:25:29.249Z,101345.55
2019-01-14T21:27:59.583Z,101351.84
2019-01-14T21:30:30.275Z,101342.31
2019-01-14T21:33:00.882Z,101352.32
2019-01-14T21:35:31.225Z,101345.58
2019-01-14T21:38:01.834Z,101355.09
2019-01-14T21:40:32.384Z,101368.76
2019-01-14T21:43:02.641Z,101364.30
2019-01-14T21:45:32.971Z,101378.06
2019-01-14T21:48:03.298Z,101383.23
2019-01-14T21:50:33.595Z,101379.32
2019-01-14T21:53:03.957Z,101379.87
2019-01-14T21:55:34.277Z,101380.58
2019-01-14T21:58:04.584Z,101384.81
2019-01-14T22:00:34.980Z,101382.48
2019-01-14T22:03:05.294Z,101388.14
2019-01-14T22:05:35.590Z,101388.66
2019-01-14T22:08:05.973Z,101387.30
2019-01-14T22:10:36.580Z,101386.52
2019-01-14T22:13:06.929Z,101388.45
2019-01-14T22:15:37.321Z,101384.12
2019-01-14T22:18:07.645Z,101384.97
2019-01-14T22:20:37.932Z,101390.43
2019-01-14T22:23:08.296Z,101383.23
2019-01-14T22:25:38.619Z,101382.13
2019-01-14T22:28:08.906Z,101386.81
2019-01-14T22:30:39.333Z,101375.47
2019-01-14T22:33:09.663Z,101379.70
2019-01-14T22:35:39.965Z,101380.16
2019-01-14T22:38:10.372Z,101381.87
2019-01-14T22:40:40.627Z,101378.86
2019-01-14T22:43:10.906Z,101382.02
2019-01-14T22:45:41.273Z,101378.53
2019-01-14T22:48:11.591Z,101386.48
2019-01-14T22:50:41.965Z,101383.11
2019-01-14T22:53:12.265Z,101389.77
2019-01-14T22:55:42.549Z,101389.13
2019-01-14T22:58:12.925Z,101383.41
2019-01-14T23:01:45.379Z,101386.08
2019-01-14T23:04:15.681Z,101389.77
2019-01-14T23:06:45.967Z,101394.38
2019-01-14T23:09:16.254Z,101393.13
2019-01-14T23:11:52.825Z,101393.84
2019-01-14T23:14:18.605Z,101401.47
2019-01-14T23:16:48.934Z,101396.49
2019-01-14T23:19:19.225Z,101391.91
2019-01-14T23:21:49.491Z,101392.55
2019-01-14T23:24:19.786Z,101387.25
2019-01-14T23:26:50.103Z,101383.99
2019-01-14T23:29:20.649Z,101388.67
2019-01-14T23:31:50.983Z,101389.61
2019-01-14T23:34:21.327Z,101383.99
2019-01-14T23:36:51.602Z,101389.27
2019-01-14T23:39:22.229Z,101390.58
2019-01-14T23:41:52.764Z,101390.94
2019-01-14T23:44:23.048Z,101385.70
2019-01-14T23:46:53.362Z,101393.84
2019-01-14T23:49:23.629Z,101395.98
2019-01-14T23:51:55.368Z,101386.64
2019-01-14T23:54:25.684Z,101391.66
2019-01-14T23:56:56.245Z,101390.52
2019-01-14T23:59:26.582Z,101388.58
